Main page
METAR-TAF:

METAR-TAF

Airports :

Hévíz–Balaton Airport

Hévíz, Hungary

latitude: 46-41-11N, longitude: 017-09-33E, elevation: 124 m

Current weather observation

The report was made 27 minutes ago, at 13:15 UTC
Wind 11 kt from the South/Southwest, varying between South and West/Southwest
Temperature 12°C
Humidity 35%
Pressure 1029 hPa
Visibility 10 km or more
no clouds below 1500 m and no cumulonimbus

METAR: LHSM 221315Z AUTO 21011KT 180V250 CAVOK 12/M03 Q1029 NOSIG

Time: 14:42 (13:42 UTC)

Forecast

The report was made 2 hours and 27 minutes ago, at 11:15 UTC
Forecast valid from 22 at 12 UTC to 22 at 21 UTC
Wind 12 kt from the Southwest
Visibility 10 km or more
no clouds below 1500 m and no cumulonimbus
Becoming
from 22 at 14 UTC to 22 at 17 UTC
Wind 6 kt from the Southwest

TAF: LHSM 221115Z 2212/2221 23012KT CAVOK BECMG 2214/2217 23006KT

Weather observations and forecasts of more than 4000 airports (METAR and TAF reports).

The available stations are represented by yellow and red dots on the map.

Hover mouse over dot to see the name of the station.

Then click to see weather observations and forecasts.

To change the map : click on the green buttons with a black cross to zoom in, on the green button with a dash to zoom out, or on the green arrows for adjacent maps.


METAR-TAF: